sensor_id;sensor_type;location;lat;lon;timestamp;temperature;humidity
25839;DHT22;13669;50.186;27.062;2022-12-01T01:35:47;-1.10;99.90
25839;DHT22;13669;50.186;27.062;2022-12-01T01:38:15;-1.00;99.90
25839;DHT22;13669;50.186;27.062;2022-12-01T01:40:46;-1.00;95.60
25839;DHT22;13669;50.186;27.062;2022-12-01T01:43:16;-0.90;90.70
25839;DHT22;13669;50.186;27.062;2022-12-01T01:45:43;-0.90;61.30
25839;DHT22;13669;50.186;27.062;2022-12-01T01:48:12;-1.00;46.20
25839;DHT22;13669;50.186;27.062;2022-12-01T01:50:40;-0.90;85.00
25839;DHT22;13669;50.186;27.062;2022-12-01T01:53:09;-0.90;62.00
25839;DHT22;13669;50.186;27.062;2022-12-01T01:55:38;-0.90;32.50
25839;DHT22;13669;50.186;27.062;2022-12-01T01:58:07;-0.90;36.50
25839;DHT22;13669;50.186;27.062;2022-12-01T02:00:38;-0.90;36.20
25839;DHT22;13669;50.186;27.062;2022-12-01T02:03:08;-0.90;23.80
25839;DHT22;13669;50.186;27.062;2022-12-01T02:05:37;-0.80;20.50
25839;DHT22;13669;50.186;27.062;2022-12-01T02:08:05;-0.90;17.10
25839;DHT22;13669;50.186;27.062;2022-12-01T02:14:04;-0.90;10.70
25839;DHT22;13669;50.186;27.062;2022-12-01T02:17:00;-1.00;8.00
25839;DHT22;13669;50.186;27.062;2022-12-01T02:31:39;-1.10;1.00
25839;DHT22;13669;50.186;27.062;2022-12-01T02:37:01;-1.10;1.00
25839;DHT22;13669;50.186;27.062;2022-12-01T02:39:34;-1.10;1.00
25839;DHT22;13669;50.186;27.062;2022-12-01T02:42:45;-1.10;1.00
25839;DHT22;13669;50.186;27.062;2022-12-01T02:45:25;-1.10;1.00
25839;DHT22;13669;50.186;27.062;2022-12-01T02:47:56;-1.10;1.00
25839;DHT22;13669;50.186;27.062;2022-12-01T02:50:27;-1.10;1.00
25839;DHT22;13669;50.186;27.062;2022-12-01T02:52:54;-1.00;1.00
25839;DHT22;13669;50.186;27.062;2022-12-01T02:55:20;-1.00;1.00
25839;DHT22;13669;50.186;27.062;2022-12-01T02:57:47;-1.00;1.00
25839;DHT22;13669;50.186;27.062;2022-12-01T03:00:14;-1.00;1.00
25839;DHT22;13669;50.186;27.062;2022-12-01T03:05:51;-0.90;1.00
25839;DHT22;13669;50.186;27.062;2022-12-01T03:08:31;-1.00;1.00
25839;DHT22;13669;50.186;27.062;2022-12-01T03:11:20;-1.00;1.00
25839;DHT22;13669;50.186;27.062;2022-12-01T03:14:16;-1.00;1.00
25839;DHT22;13669;50.186;27.062;2022-12-01T03:17:05;-1.00;1.00
25839;DHT22;13669;50.186;27.062;2022-12-01T03:19:43;-0.90;1.00
25839;DHT22;13669;50.186;27.062;2022-12-01T03:22:20;-0.90;1.00
25839;DHT22;13669;50.186;27.062;2022-12-01T03:24:53;-0.90;1.00
25839;DHT22;13669;50.186;27.062;2022-12-01T03:27:26;-0.90;1.00
25839;DHT22;13669;50.186;27.062;2022-12-01T03:29:56;-0.90;1.00
25839;DHT22;13669;50.186;27.062;2022-12-01T03:32:46;-1.10;99.90
25839;DHT22;13669;50.186;27.062;2022-12-01T03:35:19;-1.20;99.90
25839;DHT22;13669;50.186;27.062;2022-12-01T03:37:53;-1.10;99.90
25839;DHT22;13669;50.186;27.062;2022-12-01T03:40:25;-1.20;99.90
25839;DHT22;13669;50.186;27.062;2022-12-01T03:42:59;-1.20;99.90
25839;DHT22;13669;50.186;27.062;2022-12-01T03:46:07;-1.30;99.90
25839;DHT22;13669;50.186;27.062;2022-12-01T03:48:38;-1.30;99.90
25839;DHT22;13669;50.186;27.062;2022-12-01T03:51:13;-1.30;99.90
25839;DHT22;13669;50.186;27.062;2022-12-01T03:56:27;-1.30;99.90
25839;DHT22;13669;50.186;27.062;2022-12-01T03:58:59;-1.30;22.70
25839;DHT22;13669;50.186;27.062;2022-12-01T04:01:32;-1.20;1.00
25839;DHT22;13669;50.186;27.062;2022-12-01T04:04:09;-1.10;1.00
25839;DHT22;13669;50.186;27.062;2022-12-01T04:06:37;-1.10;9.10
25839;DHT22;13669;50.186;27.062;2022-12-01T04:09:05;-1.00;78.30
25839;DHT22;13669;50.186;27.062;2022-12-01T04:11:32;-1.10;99.90
25839;DHT22;13669;50.186;27.062;2022-12-01T04:14:18;-1.10;1.00
25839;DHT22;13669;50.186;27.062;2022-12-01T04:16:46;-1.10;1.00
25839;DHT22;13669;50.186;27.062;2022-12-01T04:19:13;-1.00;99.90
25839;DHT22;13669;50.186;27.062;2022-12-01T04:21:41;-1.00;99.90
25839;DHT22;13669;50.186;27.062;2022-12-01T04:24:08;-1.00;99.90
25839;DHT22;13669;50.186;27.062;2022-12-01T04:26:36;-1.10;99.90
25839;DHT22;13669;50.186;27.062;2022-12-01T04:29:07;-1.10;1.00
25839;DHT22;13669;50.186;27.062;2022-12-01T04:31:35;-1.10;98.50
25839;DHT22;13669;50.186;27.062;2022-12-01T04:34:03;-1.00;99.90
25839;DHT22;13669;50.186;27.062;2022-12-01T04:36:33;-1.00;99.90
25839;DHT22;13669;50.186;27.062;2022-12-01T04:39:02;-1.00;87.90
25839;DHT22;13669;50.186;27.062;2022-12-01T04:41:29;-1.00;99.90
25839;DHT22;13669;50.186;27.062;2022-12-01T04:43:57;-1.10;1.00
25839;DHT22;13669;50.186;27.062;2022-12-01T04:46:24;-1.00;16.00
25839;DHT22;13669;50.186;27.062;2022-12-01T04:48:52;-1.00;99.90
25839;DHT22;13669;50.186;27.062;2022-12-01T04:51:19;-1.10;99.90
25839;DHT22;13669;50.186;27.062;2022-12-01T04:53:49;-1.10;1.00
25839;DHT22;13669;50.186;27.062;2022-12-01T04:56:17;-1.20;1.00
25839;DHT22;13669;50.186;27.062;2022-12-01T04:58:44;-1.20;1.00
25839;DHT22;13669;50.186;27.062;2022-12-01T05:01:13;-1.20;67.90
25839;DHT22;13669;50.186;27.062;2022-12-01T11:21:15;0.60;1.00
25839;DHT22;13669;50.186;27.062;2022-12-01T11:23:53;0.50;99.90
25839;DHT22;13669;50.186;27.062;2022-12-01T11:26:30;0.40;1.00
25839;DHT22;13669;50.186;27.062;2022-12-01T11:31:55;0.40;99.90
25839;DHT22;13669;50.186;27.062;2022-12-01T11:34:29;0.40;33.50
25839;DHT22;13669;50.186;27.062;2022-12-01T11:37:00;0.40;99.90
25839;DHT22;13669;50.186;27.062;2022-12-01T11:39:35;0.40;12.80
25839;DHT22;13669;50.186;27.062;2022-12-01T11:44:39;0.50;99.90
25839;DHT22;13669;50.186;27.062;2022-12-01T11:47:24;0.60;1.00
25839;DHT22;13669;50.186;27.062;2022-12-01T11:50:00;0.60;1.00
25839;DHT22;13669;50.186;27.062;2022-12-01T11:52:31;0.60;54.90
25839;DHT22;13669;50.186;27.062;2022-12-01T11:57:41;0.70;1.00
25839;DHT22;13669;50.186;27.062;2022-12-01T12:00:24;0.80;1.00
25839;DHT22;13669;50.186;27.062;2022-12-01T12:22:57;0.60;61.50
25839;DHT22;13669;50.186;27.062;2022-12-01T12:42:37;0.30;99.90
25839;DHT22;13669;50.186;27.062;2022-12-01T12:53:50;0.50;99.90
25839;DHT22;13669;50.186;27.062;2022-12-01T12:56:22;0.40;1.00
25839;DHT22;13669;50.186;27.062;2022-12-01T13:04:17;0.40;99.90
25839;DHT22;13669;50.186;27.062;2022-12-01T13:06:51;0.40;99.90
25839;DHT22;13669;50.186;27.062;2022-12-01T13:09:35;0.40;1.00
25839;DHT22;13669;50.186;27.062;2022-12-01T13:12:13;0.40;99.90
25839;DHT22;13669;50.186;27.062;2022-12-01T17:16:24;-0.60;99.90
25839;DHT22;13669;50.186;27.062;2022-12-01T17:18:52;-0.30;99.90
25839;DHT22;13669;50.186;27.062;2022-12-01T17:21:19;-0.30;99.90
25839;DHT22;13669;50.186;27.062;2022-12-01T17:23:47;-0.40;1.00
25839;DHT22;13669;50.186;27.062;2022-12-01T17:26:17;-0.30;1.00
25839;DHT22;13669;50.186;27.062;2022-12-01T17:28:45;-0.30;76.30
25839;DHT22;13669;50.186;27.062;2022-12-01T17:31:13;-0.30;1.00
25839;DHT22;13669;50.186;27.062;2022-12-01T17:33:42;-0.30;14.60
25839;DHT22;13669;50.186;27.062;2022-12-01T17:36:11;-0.20;1.00
25839;DHT22;13669;50.186;27.062;2022-12-01T17:38:42;-0.30;1.00
25839;DHT22;13669;50.186;27.062;2022-12-01T17:41:13;-0.30;1.00
25839;DHT22;13669;50.186;27.062;2022-12-01T17:43:41;-0.30;1.00
25839;DHT22;13669;50.186;27.062;2022-12-01T17:46:10;-0.30;1.00
25839;DHT22;13669;50.186;27.062;2022-12-01T17:48:44;-0.40;99.90
25839;DHT22;13669;50.186;27.062;2022-12-01T17:51:13;-0.40;1.00
25839;DHT22;13669;50.186;27.062;2022-12-01T17:53:41;-0.30;1.00
25839;DHT22;13669;50.186;27.062;2022-12-01T17:56:11;-0.30;99.90
25839;DHT22;13669;50.186;27.062;2022-12-01T17:58:39;-0.30;97.80
25839;DHT22;13669;50.186;27.062;2022-12-01T18:01:15;-0.30;1.00
25839;DHT22;13669;50.186;27.062;2022-12-01T18:03:43;-0.30;99.90
25839;DHT22;13669;50.186;27.062;2022-12-01T18:06:12;-0.30;1.00
25839;DHT22;13669;50.186;27.062;2022-12-01T18:08:40;-0.30;99.90
25839;DHT22;13669;50.186;27.062;2022-12-01T18:11:11;-0.40;1.00
25839;DHT22;13669;50.186;27.062;2022-12-01T18:13:46;-0.40;1.00
25839;DHT22;13669;50.186;27.062;2022-12-01T18:16:16;-0.50;99.90
25839;DHT22;13669;50.186;27.062;2022-12-01T18:18:45;-0.50;99.90
25839;DHT22;13669;50.186;27.062;2022-12-01T18:21:15;-0.60;1.00
25839;DHT22;13669;50.186;27.062;2022-12-01T18:24:01;-0.60;1.00
25839;DHT22;13669;50.186;27.062;2022-12-01T18:26:31;-0.60;99.90
25839;DHT22;13669;50.186;27.062;2022-12-01T18:29:19;-0.60;1.00
25839;DHT22;13669;50.186;27.062;2022-12-01T18:31:54;-0.40;99.90
25839;DHT22;13669;50.186;27.062;2022-12-01T18:34:21;-0.50;99.90
25839;DHT22;13669;50.186;27.062;2022-12-01T18:36:49;-0.40;99.90
25839;DHT22;13669;50.186;27.062;2022-12-01T18:39:17;-0.40;99.90
25839;DHT22;13669;50.186;27.062;2022-12-01T18:41:44;-0.40;17.10
25839;DHT22;13669;50.186;27.062;2022-12-01T18:44:12;-0.40;31.10
25839;DHT22;13669;50.186;27.062;2022-12-01T18:46:40;-0.50;1.00
25839;DHT22;13669;50.186;27.062;2022-12-01T18:49:12;-0.50;99.90
25839;DHT22;13669;50.186;27.062;2022-12-01T18:51:40;-0.50;99.90
25839;DHT22;13669;50.186;27.062;2022-12-01T18:54:11;-0.50;99.90
25839;DHT22;13669;50.186;27.062;2022-12-01T18:56:39;-0.40;99.90
25839;DHT22;13669;50.186;27.062;2022-12-01T18:59:10;-0.50;99.90
25839;DHT22;13669;50.186;27.062;2022-12-01T19:01:39;-0.50;99.90
25839;DHT22;13669;50.186;27.062;2022-12-01T21:15:54;-2.30;1.00
25839;DHT22;13669;50.186;27.062;2022-12-01T21:21:39;-2.20;1.00
25839;DHT22;13669;50.186;27.062;2022-12-01T21:26:39;-2.30;1.00
25839;DHT22;13669;50.186;27.062;2022-12-01T21:29:31;-2.30;1.00
25839;DHT22;13669;50.186;27.062;2022-12-01T21:32:13;-2.30;1.00
25839;DHT22;13669;50.186;27.062;2022-12-01T21:34:41;-2.30;1.00
25839;DHT22;13669;50.186;27.062;2022-12-01T21:37:18;-2.30;1.00
25839;DHT22;13669;50.186;27.062;2022-12-01T21:39:47;-2.30;1.00
25839;DHT22;13669;50.186;27.062;2022-12-01T21:42:29;-2.30;1.00
25839;DHT22;13669;50.186;27.062;2022-12-01T21:44:58;-2.30;1.00
25839;DHT22;13669;50.186;27.062;2022-12-01T21:47:28;-2.30;1.00
25839;DHT22;13669;50.186;27.062;2022-12-01T21:49:57;-2.30;1.00
25839;DHT22;13669;50.186;27.062;2022-12-01T21:52:31;-2.30;1.00
25839;DHT22;13669;50.186;27.062;2022-12-01T21:57:47;-2.30;1.00
25839;DHT22;13669;50.186;27.062;2022-12-01T22:02:50;-2.20;1.00
25839;DHT22;13669;50.186;27.062;2022-12-01T22:05:37;-2.20;1.00
25839;DHT22;13669;50.186;27.062;2022-12-01T22:10:55;-2.10;1.00
25839;DHT22;13669;50.186;27.062;2022-12-01T22:13:39;-2.20;1.00
25839;DHT22;13669;50.186;27.062;2022-12-01T22:16:29;-2.10;99.90
25839;DHT22;13669;50.186;27.062;2022-12-01T22:21:48;-2.30;99.90
25839;DHT22;13669;50.186;27.062;2022-12-01T22:27:31;-2.40;1.00
25839;DHT22;13669;50.186;27.062;2022-12-01T22:40:59;-2.30;1.00
25839;DHT22;13669;50.186;27.062;2022-12-01T22:49:21;-2.20;99.90
25839;DHT22;13669;50.186;27.062;2022-12-01T22:52:26;-2.10;99.90
25839;DHT22;13669;50.186;27.062;2022-12-01T22:54:50;-2.10;99.90
25839;DHT22;13669;50.186;27.062;2022-12-01T22:57:27;-2.10;99.90
25839;DHT22;13669;50.186;27.062;2022-12-01T22:59:55;-2.10;99.90
25839;DHT22;13669;50.186;27.062;2022-12-01T23:02:37;-2.10;99.90
25839;DHT22;13669;50.186;27.062;2022-12-01T23:05:25;-2.10;99.90
25839;DHT22;13669;50.186;27.062;2022-12-01T23:07:54;-2.10;48.10
25839;DHT22;13669;50.186;27.062;2022-12-01T23:10:27;-2.10;97.00
25839;DHT22;13669;50.186;27.062;2022-12-01T23:12:58;-2.20;1.00
25839;DHT22;13669;50.186;27.062;2022-12-01T23:15:40;-2.20;99.90
25839;DHT22;13669;50.186;27.062;2022-12-01T23:18:23;-2.20;99.90
25839;DHT22;13669;50.186;27.062;2022-12-01T23:20:58;-2.20;99.90
25839;DHT22;13669;50.186;27.062;2022-12-01T23:23:33;-2.10;99.90
25839;DHT22;13669;50.186;27.062;2022-12-01T23:26:03;-2.10;99.90
25839;DHT22;13669;50.186;27.062;2022-12-01T23:28:31;-2.10;51.80
25839;DHT22;13669;50.186;27.062;2022-12-01T23:30:58;-2.20;99.90
25839;DHT22;13669;50.186;27.062;2022-12-01T23:33:31;-2.20;99.90
25839;DHT22;13669;50.186;27.062;2022-12-01T23:38:49;-2.20;99.90
25839;DHT22;13669;50.186;27.062;2022-12-01T23:41:22;-2.20;99.90
25839;DHT22;13669;50.186;27.062;2022-12-01T23:43:53;-2.10;99.90
25839;DHT22;13669;50.186;27.062;2022-12-01T23:46:23;-2.10;99.90
25839;DHT22;13669;50.186;27.062;2022-12-01T23:48:55;-2.10;1.00
25839;DHT22;13669;50.186;27.062;2022-12-01T23:51:29;-2.10;61.10
25839;DHT22;13669;50.186;27.062;2022-12-01T23:54:00;-2.00;40.10
25839;DHT22;13669;50.186;27.062;2022-12-01T23:56:29;-2.00;1.00
25839;DHT22;13669;50.186;27.062;2022-12-01T23:58:59;-2.00;99.90
